Terminal Aerodrome Forecast
Issued by NWS

Home | Current Version | Previous Version | Text Only | Print | Product List | Glossary On
Versions: 1 2 3 4 5 6 7 8 9 10 11 12 13 14 15 16
000
FTUS41 KBTV 251141
TAFRUT
TAF
KRUT 251141Z 2512/2612 12013KT P6SM BKN050
     FM251500 16015G25KT P6SM BKN040
     FM251900 17015G28KT P6SM VCSH BKN030
      TEMPO 2522/2602 2SM +SHRA BR OVC020
     FM260200 25006KT P6SM VCSH OVC030
      TEMPO 2602/2605 3SM -SHRA BR OVC020=

USA.gov is the U.S. government's official web portal to all federal, state and local government web resources and services.